sensor_id;sensor_type;location;lat;lon;timestamp;P1;durP1;ratioP1;P2;durP2;ratioP2
37593;SDS011;23441;50.856;6.076;2023-03-14T00:00:56;13.30;;;2.47;;
37593;SDS011;23441;50.856;6.076;2023-03-14T00:03:22;12.07;;;2.35;;
37593;SDS011;23441;50.856;6.076;2023-03-14T00:05:48;9.18;;;2.70;;
37593;SDS011;23441;50.856;6.076;2023-03-14T00:08:14;18.33;;;2.78;;
37593;SDS011;23441;50.856;6.076;2023-03-14T00:10:39;9.75;;;2.15;;
37593;SDS011;23441;50.856;6.076;2023-03-14T00:13:05;13.10;;;2.80;;
37593;SDS011;23441;50.856;6.076;2023-03-14T00:15:32;4.85;;;1.33;;
37593;SDS011;23441;50.856;6.076;2023-03-14T00:17:59;5.43;;;1.40;;
37593;SDS011;23441;50.856;6.076;2023-03-14T00:20:25;4.00;;;1.38;;
37593;SDS011;23441;50.856;6.076;2023-03-14T00:22:50;6.63;;;1.05;;
37593;SDS011;23441;50.856;6.076;2023-03-14T00:25:16;3.08;;;1.17;;
37593;SDS011;23441;50.856;6.076;2023-03-14T00:27:42;5.63;;;1.10;;
37593;SDS011;23441;50.856;6.076;2023-03-14T00:30:08;7.10;;;1.73;;
37593;SDS011;23441;50.856;6.076;2023-03-14T00:32:34;6.97;;;1.55;;
37593;SDS011;23441;50.856;6.076;2023-03-14T00:35:00;5.45;;;1.42;;
37593;SDS011;23441;50.856;6.076;2023-03-14T00:37:28;8.13;;;1.50;;
37593;SDS011;23441;50.856;6.076;2023-03-14T00:39:54;7.28;;;1.30;;
37593;SDS011;23441;50.856;6.076;2023-03-14T00:42:20;8.38;;;1.70;;
37593;SDS011;23441;50.856;6.076;2023-03-14T00:44:46;11.68;;;1.65;;
37593;SDS011;23441;50.856;6.076;2023-03-14T00:47:12;7.32;;;1.88;;
37593;SDS011;23441;50.856;6.076;2023-03-14T00:49:37;7.53;;;1.98;;
37593;SDS011;23441;50.856;6.076;2023-03-14T00:52:03;9.75;;;1.70;;
37593;SDS011;23441;50.856;6.076;2023-03-14T00:54:29;5.82;;;1.52;;
37593;SDS011;23441;50.856;6.076;2023-03-14T00:56:54;8.15;;;1.88;;
37593;SDS011;23441;50.856;6.076;2023-03-14T00:59:20;7.72;;;1.88;;
37593;SDS011;23441;50.856;6.076;2023-03-14T01:01:46;10.10;;;1.75;;
37593;SDS011;23441;50.856;6.076;2023-03-14T01:04:12;4.97;;;1.60;;
37593;SDS011;23441;50.856;6.076;2023-03-14T01:06:37;8.18;;;1.83;;
37593;SDS011;23441;50.856;6.076;2023-03-14T01:09:04;8.93;;;1.60;;
37593;SDS011;23441;50.856;6.076;2023-03-14T01:11:31;6.70;;;1.45;;
37593;SDS011;23441;50.856;6.076;2023-03-14T01:13:58;5.63;;;1.55;;
37593;SDS011;23441;50.856;6.076;2023-03-14T01:16:25;5.88;;;1.73;;
37593;SDS011;23441;50.856;6.076;2023-03-14T01:18:53;6.20;;;1.40;;
37593;SDS011;23441;50.856;6.076;2023-03-14T01:21:26;6.30;;;1.40;;
37593;SDS011;23441;50.856;6.076;2023-03-14T01:23:54;7.25;;;1.63;;
37593;SDS011;23441;50.856;6.076;2023-03-14T01:26:22;7.65;;;1.48;;
37593;SDS011;23441;50.856;6.076;2023-03-14T01:28:49;9.38;;;1.83;;
37593;SDS011;23441;50.856;6.076;2023-03-14T01:31:17;3.92;;;1.48;;
37593;SDS011;23441;50.856;6.076;2023-03-14T01:33:43;6.88;;;1.48;;
37593;SDS011;23441;50.856;6.076;2023-03-14T01:36:09;6.32;;;1.70;;
37593;SDS011;23441;50.856;6.076;2023-03-14T01:38:36;7.45;;;1.63;;
37593;SDS011;23441;50.856;6.076;2023-03-14T01:41:03;5.07;;;1.48;;
37593;SDS011;23441;50.856;6.076;2023-03-14T01:43:29;4.82;;;1.42;;
37593;SDS011;23441;50.856;6.076;2023-03-14T01:54:02;8.65;;;2.13;;
37593;SDS011;23441;50.856;6.076;2023-03-14T01:56:36;7.55;;;1.58;;
37593;SDS011;23441;50.856;6.076;2023-03-14T01:59:06;11.43;;;2.85;;
37593;SDS011;23441;50.856;6.076;2023-03-14T02:01:33;6.43;;;2.38;;
37593;SDS011;23441;50.856;6.076;2023-03-14T02:04:01;6.10;;;1.88;;
37593;SDS011;23441;50.856;6.076;2023-03-14T02:06:29;8.73;;;1.98;;
37593;SDS011;23441;50.856;6.076;2023-03-14T02:09:01;12.50;;;2.20;;
37593;SDS011;23441;50.856;6.076;2023-03-14T02:11:29;8.35;;;1.75;;
37593;SDS011;23441;50.856;6.076;2023-03-14T02:13:55;7.47;;;2.28;;
37593;SDS011;23441;50.856;6.076;2023-03-14T02:16:23;8.68;;;2.08;;
37593;SDS011;23441;50.856;6.076;2023-03-14T02:18:48;11.27;;;2.30;;
37593;SDS011;23441;50.856;6.076;2023-03-14T02:24:09;9.77;;;2.30;;
37593;SDS011;23441;50.856;6.076;2023-03-14T02:29:30;12.27;;;2.30;;
37593;SDS011;23441;50.856;6.076;2023-03-14T02:31:58;7.95;;;2.80;;
37593;SDS011;23441;50.856;6.076;2023-03-14T02:34:24;12.00;;;2.40;;
37593;SDS011;23441;50.856;6.076;2023-03-14T02:36:50;11.48;;;2.58;;
37593;SDS011;23441;50.856;6.076;2023-03-14T02:39:22;11.18;;;2.15;;
37593;SDS011;23441;50.856;6.076;2023-03-14T02:41:52;10.32;;;2.17;;
37593;SDS011;23441;50.856;6.076;2023-03-14T02:44:18;13.45;;;2.28;;
37593;SDS011;23441;50.856;6.076;2023-03-14T02:46:44;12.85;;;2.83;;
37593;SDS011;23441;50.856;6.076;2023-03-14T02:49:12;10.63;;;2.10;;
37593;SDS011;23441;50.856;6.076;2023-03-14T02:51:39;12.68;;;2.38;;
37593;SDS011;23441;50.856;6.076;2023-03-14T02:54:06;13.98;;;2.38;;
37593;SDS011;23441;50.856;6.076;2023-03-14T02:56:32;12.60;;;2.42;;
37593;SDS011;23441;50.856;6.076;2023-03-14T02:58:58;11.38;;;2.38;;
37593;SDS011;23441;50.856;6.076;2023-03-14T03:01:24;8.95;;;2.17;;
37593;SDS011;23441;50.856;6.076;2023-03-14T03:03:50;13.40;;;2.30;;
37593;SDS011;23441;50.856;6.076;2023-03-14T03:06:15;9.00;;;2.03;;
37593;SDS011;23441;50.856;6.076;2023-03-14T03:08:41;10.10;;;2.13;;
37593;SDS011;23441;50.856;6.076;2023-03-14T03:11:07;11.10;;;2.22;;
37593;SDS011;23441;50.856;6.076;2023-03-14T03:13:33;14.30;;;2.20;;
37593;SDS011;23441;50.856;6.076;2023-03-14T03:15:59;8.35;;;2.53;;
37593;SDS011;23441;50.856;6.076;2023-03-14T03:18:25;11.52;;;1.75;;
37593;SDS011;23441;50.856;6.076;2023-03-14T03:20:50;9.25;;;1.92;;
37593;SDS011;23441;50.856;6.076;2023-03-14T03:23:16;6.03;;;1.70;;
37593;SDS011;23441;50.856;6.076;2023-03-14T03:25:41;8.55;;;1.75;;
37593;SDS011;23441;50.856;6.076;2023-03-14T03:28:12;4.10;;;1.35;;
37593;SDS011;23441;50.856;6.076;2023-03-14T03:30:38;7.40;;;1.60;;
37593;SDS011;23441;50.856;6.076;2023-03-14T03:33:05;6.95;;;1.30;;
37593;SDS011;23441;50.856;6.076;2023-03-14T03:35:30;4.07;;;1.38;;
37593;SDS011;23441;50.856;6.076;2023-03-14T03:37:56;3.38;;;1.45;;
37593;SDS011;23441;50.856;6.076;2023-03-14T03:40:22;7.93;;;1.45;;
37593;SDS011;23441;50.856;6.076;2023-03-14T03:42:48;4.32;;;1.35;;
37593;SDS011;23441;50.856;6.076;2023-03-14T03:45:13;3.72;;;1.10;;
37593;SDS011;23441;50.856;6.076;2023-03-14T03:47:39;10.60;;;2.15;;
37593;SDS011;23441;50.856;6.076;2023-03-14T03:50:05;4.68;;;1.10;;
37593;SDS011;23441;50.856;6.076;2023-03-14T03:52:31;3.90;;;1.10;;
37593;SDS011;23441;50.856;6.076;2023-03-14T03:54:56;2.70;;;1.40;;
37593;SDS011;23441;50.856;6.076;2023-03-14T03:57:22;2.80;;;0.98;;
37593;SDS011;23441;50.856;6.076;2023-03-14T03:59:47;2.42;;;1.13;;
37593;SDS011;23441;50.856;6.076;2023-03-14T04:02:13;3.22;;;0.90;;
37593;SDS011;23441;50.856;6.076;2023-03-14T04:04:39;2.80;;;0.80;;
37593;SDS011;23441;50.856;6.076;2023-03-14T04:07:04;1.27;;;0.80;;
37593;SDS011;23441;50.856;6.076;2023-03-14T04:09:30;1.10;;;0.65;;
37593;SDS011;23441;50.856;6.076;2023-03-14T04:11:56;1.30;;;0.90;;
37593;SDS011;23441;50.856;6.076;2023-03-14T04:14:22;1.80;;;0.80;;
37593;SDS011;23441;50.856;6.076;2023-03-14T04:16:47;1.38;;;0.60;;
37593;SDS011;23441;50.856;6.076;2023-03-14T04:19:13;1.52;;;0.85;;
37593;SDS011;23441;50.856;6.076;2023-03-14T04:21:39;0.93;;;0.80;;
37593;SDS011;23441;50.856;6.076;2023-03-14T04:24:12;1.15;;;0.60;;
37593;SDS011;23441;50.856;6.076;2023-03-14T04:26:38;3.22;;;0.70;;
37593;SDS011;23441;50.856;6.076;2023-03-14T04:29:04;1.23;;;0.80;;
37593;SDS011;23441;50.856;6.076;2023-03-14T04:31:29;0.75;;;0.47;;
37593;SDS011;23441;50.856;6.076;2023-03-14T04:33:55;1.05;;;0.60;;
37593;SDS011;23441;50.856;6.076;2023-03-14T04:36:20;1.20;;;0.70;;
37593;SDS011;23441;50.856;6.076;2023-03-14T04:38:46;1.50;;;0.70;;
37593;SDS011;23441;50.856;6.076;2023-03-14T04:41:12;0.73;;;0.50;;
37593;SDS011;23441;50.856;6.076;2023-03-14T04:43:37;0.65;;;0.60;;
37593;SDS011;23441;50.856;6.076;2023-03-14T04:46:03;2.25;;;0.60;;
37593;SDS011;23441;50.856;6.076;2023-03-14T04:48:29;0.50;;;0.50;;
37593;SDS011;23441;50.856;6.076;2023-03-14T04:50:54;0.80;;;0.50;;
37593;SDS011;23441;50.856;6.076;2023-03-14T04:53:20;1.38;;;0.60;;
37593;SDS011;23441;50.856;6.076;2023-03-14T04:55:49;0.98;;;0.50;;
37593;SDS011;23441;50.856;6.076;2023-03-14T04:58:19;1.65;;;0.50;;
37593;SDS011;23441;50.856;6.076;2023-03-14T05:00:46;0.60;;;0.60;;
37593;SDS011;23441;50.856;6.076;2023-03-14T05:03:13;0.82;;;0.82;;
37593;SDS011;23441;50.856;6.076;2023-03-14T05:05:40;0.45;;;0.45;;
37593;SDS011;23441;50.856;6.076;2023-03-14T05:08:05;1.33;;;0.63;;
37593;SDS011;23441;50.856;6.076;2023-03-14T05:10:31;0.40;;;0.40;;
37593;SDS011;23441;50.856;6.076;2023-03-14T05:12:57;0.60;;;0.52;;
37593;SDS011;23441;50.856;6.076;2023-03-14T05:15:22;0.52;;;0.50;;
37593;SDS011;23441;50.856;6.076;2023-03-14T05:17:48;0.73;;;0.50;;
37593;SDS011;23441;50.856;6.076;2023-03-14T05:20:14;0.65;;;0.45;;
37593;SDS011;23441;50.856;6.076;2023-03-14T05:22:40;0.55;;;0.40;;
37593;SDS011;23441;50.856;6.076;2023-03-14T05:25:06;0.40;;;0.38;;
37593;SDS011;23441;50.856;6.076;2023-03-14T05:27:33;0.70;;;0.50;;
37593;SDS011;23441;50.856;6.076;2023-03-14T05:29:59;0.40;;;0.40;;
37593;SDS011;23441;50.856;6.076;2023-03-14T05:32:25;0.40;;;0.40;;
37593;SDS011;23441;50.856;6.076;2023-03-14T05:34:50;0.70;;;0.50;;
37593;SDS011;23441;50.856;6.076;2023-03-14T05:37:16;0.50;;;0.50;;
37593;SDS011;23441;50.856;6.076;2023-03-14T05:39:42;1.52;;;0.40;;
37593;SDS011;23441;50.856;6.076;2023-03-14T05:42:07;0.40;;;0.40;;
37593;SDS011;23441;50.856;6.076;2023-03-14T05:44:33;0.40;;;0.40;;
37593;SDS011;23441;50.856;6.076;2023-03-14T05:46:59;0.85;;;0.40;;
37593;SDS011;23441;50.856;6.076;2023-03-14T05:49:24;0.93;;;0.50;;
37593;SDS011;23441;50.856;6.076;2023-03-14T05:51:50;0.75;;;0.50;;
37593;SDS011;23441;50.856;6.076;2023-03-14T05:54:16;0.70;;;0.52;;
37593;SDS011;23441;50.856;6.076;2023-03-14T05:56:42;1.33;;;0.40;;
37593;SDS011;23441;50.856;6.076;2023-03-14T05:59:07;0.40;;;0.40;;
37593;SDS011;23441;50.856;6.076;2023-03-14T06:01:34;0.40;;;0.40;;
37593;SDS011;23441;50.856;6.076;2023-03-14T06:03:59;1.10;;;0.55;;
37593;SDS011;23441;50.856;6.076;2023-03-14T06:06:25;0.50;;;0.50;;
37593;SDS011;23441;50.856;6.076;2023-03-14T06:08:51;0.50;;;0.50;;
37593;SDS011;23441;50.856;6.076;2023-03-14T06:11:16;0.40;;;0.40;;
37593;SDS011;23441;50.856;6.076;2023-03-14T06:13:42;2.05;;;0.70;;
37593;SDS011;23441;50.856;6.076;2023-03-14T06:16:08;1.00;;;0.60;;
37593;SDS011;23441;50.856;6.076;2023-03-14T06:18:34;0.50;;;0.50;;
37593;SDS011;23441;50.856;6.076;2023-03-14T06:20:59;0.45;;;0.45;;
37593;SDS011;23441;50.856;6.076;2023-03-14T06:23:25;0.60;;;0.60;;
37593;SDS011;23441;50.856;6.076;2023-03-14T06:25:51;0.95;;;0.50;;
37593;SDS011;23441;50.856;6.076;2023-03-14T06:28:17;0.63;;;0.63;;
37593;SDS011;23441;50.856;6.076;2023-03-14T06:30:42;0.77;;;0.50;;
37593;SDS011;23441;50.856;6.076;2023-03-14T06:33:08;1.05;;;0.70;;
37593;SDS011;23441;50.856;6.076;2023-03-14T06:35:34;2.45;;;0.93;;
37593;SDS011;23441;50.856;6.076;2023-03-14T06:37:59;0.80;;;0.80;;
37593;SDS011;23441;50.856;6.076;2023-03-14T06:40:25;1.25;;;1.00;;
37593;SDS011;23441;50.856;6.076;2023-03-14T06:42:51;1.02;;;1.00;;
37593;SDS011;23441;50.856;6.076;2023-03-14T06:45:17;1.27;;;0.95;;
37593;SDS011;23441;50.856;6.076;2023-03-14T06:47:42;1.50;;;0.80;;
37593;SDS011;23441;50.856;6.076;2023-03-14T06:50:08;2.45;;;0.88;;
37593;SDS011;23441;50.856;6.076;2023-03-14T06:52:35;0.93;;;0.80;;
37593;SDS011;23441;50.856;6.076;2023-03-14T06:55:01;0.90;;;0.90;;
37593;SDS011;23441;50.856;6.076;2023-03-14T06:57:27;1.05;;;0.85;;
37593;SDS011;23441;50.856;6.076;2023-03-14T06:59:52;0.70;;;0.70;;
37593;SDS011;23441;50.856;6.076;2023-03-14T07:02:18;1.02;;;0.93;;
37593;SDS011;23441;50.856;6.076;2023-03-14T07:04:44;0.80;;;0.80;;
37593;SDS011;23441;50.856;6.076;2023-03-14T07:07:09;0.90;;;0.90;;
37593;SDS011;23441;50.856;6.076;2023-03-14T07:09:35;1.70;;;0.95;;
37593;SDS011;23441;50.856;6.076;2023-03-14T07:12:01;2.47;;;1.10;;
37593;SDS011;23441;50.856;6.076;2023-03-14T07:14:28;0.70;;;0.70;;
37593;SDS011;23441;50.856;6.076;2023-03-14T07:16:53;1.42;;;1.00;;
37593;SDS011;23441;50.856;6.076;2023-03-14T07:19:19;1.33;;;1.00;;
37593;SDS011;23441;50.856;6.076;2023-03-14T07:21:45;0.73;;;0.70;;
37593;SDS011;23441;50.856;6.076;2023-03-14T07:24:10;0.77;;;0.77;;
37593;SDS011;23441;50.856;6.076;2023-03-14T07:26:36;2.75;;;0.80;;
37593;SDS011;23441;50.856;6.076;2023-03-14T07:29:01;0.85;;;0.85;;
37593;SDS011;23441;50.856;6.076;2023-03-14T07:31:30;0.70;;;0.70;;
37593;SDS011;23441;50.856;6.076;2023-03-14T07:33:56;0.73;;;0.70;;
37593;SDS011;23441;50.856;6.076;2023-03-14T07:36:22;2.83;;;0.90;;
37593;SDS011;23441;50.856;6.076;2023-03-14T07:38:48;0.80;;;0.80;;
37593;SDS011;23441;50.856;6.076;2023-03-14T07:41:14;0.90;;;0.80;;
37593;SDS011;23441;50.856;6.076;2023-03-14T07:43:40;0.77;;;0.77;;
37593;SDS011;23441;50.856;6.076;2023-03-14T07:46:06;0.70;;;0.70;;
37593;SDS011;23441;50.856;6.076;2023-03-14T07:48:32;0.77;;;0.77;;
37593;SDS011;23441;50.856;6.076;2023-03-14T07:50:58;0.88;;;0.88;;
37593;SDS011;23441;50.856;6.076;2023-03-14T07:53:24;1.10;;;0.77;;
37593;SDS011;23441;50.856;6.076;2023-03-14T07:55:53;1.95;;;0.70;;
37593;SDS011;23441;50.856;6.076;2023-03-14T07:58:19;1.10;;;1.00;;
37593;SDS011;23441;50.856;6.076;2023-03-14T08:00:47;1.10;;;0.70;;
37593;SDS011;23441;50.856;6.076;2023-03-14T08:03:13;0.88;;;0.88;;
37593;SDS011;23441;50.856;6.076;2023-03-14T08:05:39;1.77;;;0.90;;
37593;SDS011;23441;50.856;6.076;2023-03-14T08:08:05;0.88;;;0.88;;
37593;SDS011;23441;50.856;6.076;2023-03-14T08:10:31;3.67;;;0.90;;
37593;SDS011;23441;50.856;6.076;2023-03-14T08:12:57;1.35;;;1.00;;
37593;SDS011;23441;50.856;6.076;2023-03-14T08:15:24;1.63;;;1.00;;
37593;SDS011;23441;50.856;6.076;2023-03-14T08:17:51;3.17;;;1.25;;
37593;SDS011;23441;50.856;6.076;2023-03-14T08:20:18;1.42;;;1.33;;
37593;SDS011;23441;50.856;6.076;2023-03-14T08:22:48;1.40;;;1.30;;
37593;SDS011;23441;50.856;6.076;2023-03-14T08:25:14;2.42;;;1.88;;
37593;SDS011;23441;50.856;6.076;2023-03-14T08:27:40;2.35;;;1.50;;
37593;SDS011;23441;50.856;6.076;2023-03-14T08:30:07;1.77;;;1.30;;
37593;SDS011;23441;50.856;6.076;2023-03-14T08:32:35;3.95;;;1.85;;
37593;SDS011;23441;50.856;6.076;2023-03-14T08:35:01;3.35;;;1.65;;
37593;SDS011;23441;50.856;6.076;2023-03-14T08:37:27;2.15;;;1.70;;
37593;SDS011;23441;50.856;6.076;2023-03-14T08:39:53;4.10;;;1.58;;
37593;SDS011;23441;50.856;6.076;2023-03-14T08:42:19;3.65;;;1.58;;
37593;SDS011;23441;50.856;6.076;2023-03-14T08:44:44;1.55;;;1.10;;
37593;SDS011;23441;50.856;6.076;2023-03-14T08:47:10;0.70;;;0.70;;
37593;SDS011;23441;50.856;6.076;2023-03-14T08:49:36;2.70;;;0.90;;
37593;SDS011;23441;50.856;6.076;2023-03-14T08:52:02;0.80;;;0.80;;
37593;SDS011;23441;50.856;6.076;2023-03-14T08:54:29;0.98;;;0.70;;
37593;SDS011;23441;50.856;6.076;2023-03-14T08:56:55;2.13;;;0.80;;
37593;SDS011;23441;50.856;6.076;2023-03-14T08:59:21;1.58;;;0.82;;
37593;SDS011;23441;50.856;6.076;2023-03-14T09:01:47;0.75;;;0.75;;
37593;SDS011;23441;50.856;6.076;2023-03-14T09:04:13;1.38;;;0.80;;
37593;SDS011;23441;50.856;6.076;2023-03-14T09:06:39;1.98;;;0.70;;
37593;SDS011;23441;50.856;6.076;2023-03-14T09:09:05;0.50;;;0.50;;
37593;SDS011;23441;50.856;6.076;2023-03-14T09:11:30;0.57;;;0.57;;
37593;SDS011;23441;50.856;6.076;2023-03-14T09:13:56;1.98;;;0.60;;
37593;SDS011;23441;50.856;6.076;2023-03-14T09:16:22;2.05;;;0.60;;
37593;SDS011;23441;50.856;6.076;2023-03-14T09:18:48;0.93;;;0.50;;
37593;SDS011;23441;50.856;6.076;2023-03-14T09:21:13;0.85;;;0.73;;
37593;SDS011;23441;50.856;6.076;2023-03-14T09:23:40;1.30;;;0.80;;
37593;SDS011;23441;50.856;6.076;2023-03-14T09:26:06;2.00;;;1.23;;
37593;SDS011;23441;50.856;6.076;2023-03-14T09:28:32;1.63;;;1.15;;
37593;SDS011;23441;50.856;6.076;2023-03-14T09:30:58;2.83;;;0.93;;
37593;SDS011;23441;50.856;6.076;2023-03-14T09:33:29;1.00;;;0.90;;
37593;SDS011;23441;50.856;6.076;2023-03-14T09:35:57;1.02;;;1.00;;
37593;SDS011;23441;50.856;6.076;2023-03-14T09:38:24;2.25;;;1.20;;
37593;SDS011;23441;50.856;6.076;2023-03-14T09:40:51;2.60;;;1.40;;
37593;SDS011;23441;50.856;6.076;2023-03-14T09:43:18;1.60;;;1.27;;
37593;SDS011;23441;50.856;6.076;2023-03-14T09:45:46;2.15;;;1.30;;
37593;SDS011;23441;50.856;6.076;2023-03-14T09:48:18;1.50;;;1.40;;
37593;SDS011;23441;50.856;6.076;2023-03-14T09:50:50;1.88;;;1.25;;
37593;SDS011;23441;50.856;6.076;2023-03-14T09:53:19;2.00;;;1.60;;
37593;SDS011;23441;50.856;6.076;2023-03-14T09:55:50;3.08;;;1.55;;
37593;SDS011;23441;50.856;6.076;2023-03-14T09:58:20;3.30;;;1.60;;
37593;SDS011;23441;50.856;6.076;2023-03-14T10:00:49;2.80;;;1.55;;
37593;SDS011;23441;50.856;6.076;2023-03-14T10:05:47;4.47;;;2.25;;
37593;SDS011;23441;50.856;6.076;2023-03-14T10:08:13;4.60;;;3.00;;
37593;SDS011;23441;50.856;6.076;2023-03-14T10:10:39;2.92;;;2.63;;
37593;SDS011;23441;50.856;6.076;2023-03-14T10:13:16;2.70;;;2.47;;
37593;SDS011;23441;50.856;6.076;2023-03-14T10:15:53;8.15;;;2.95;;
37593;SDS011;23441;50.856;6.076;2023-03-14T10:18:19;3.35;;;2.65;;
37593;SDS011;23441;50.856;6.076;2023-03-14T10:20:46;3.53;;;2.55;;
37593;SDS011;23441;50.856;6.076;2023-03-14T10:25:43;2.63;;;2.40;;
37593;SDS011;23441;50.856;6.076;2023-03-14T10:30:50;7.32;;;2.92;;
37593;SDS011;23441;50.856;6.076;2023-03-14T10:35:55;6.53;;;2.88;;
37593;SDS011;23441;50.856;6.076;2023-03-14T10:38:27;8.18;;;3.45;;
37593;SDS011;23441;50.856;6.076;2023-03-14T10:41:00;7.07;;;2.80;;
37593;SDS011;23441;50.856;6.076;2023-03-14T10:43:31;3.13;;;2.85;;
37593;SDS011;23441;50.856;6.076;2023-03-14T10:46:00;5.07;;;2.28;;
37593;SDS011;23441;50.856;6.076;2023-03-14T10:48:38;2.33;;;2.10;;
37593;SDS011;23441;50.856;6.076;2023-03-14T10:51:26;2.63;;;2.00;;
37593;SDS011;23441;50.856;6.076;2023-03-14T10:53:56;1.85;;;1.63;;
37593;SDS011;23441;50.856;6.076;2023-03-14T10:56:23;5.57;;;2.00;;
37593;SDS011;23441;50.856;6.076;2023-03-14T10:58:53;1.80;;;1.70;;
37593;SDS011;23441;50.856;6.076;2023-03-14T11:04:14;3.28;;;1.40;;
37593;SDS011;23441;50.856;6.076;2023-03-14T11:06:53;3.47;;;1.42;;
37593;SDS011;23441;50.856;6.076;2023-03-14T11:14:56;3.17;;;1.70;;
37593;SDS011;23441;50.856;6.076;2023-03-14T11:17:38;5.03;;;2.15;;
37593;SDS011;23441;50.856;6.076;2023-03-14T11:23:11;3.88;;;2.20;;
37593;SDS011;23441;50.856;6.076;2023-03-14T11:30:52;5.97;;;1.85;;
37593;SDS011;23441;50.856;6.076;2023-03-14T11:33:24;1.95;;;1.25;;
37593;SDS011;23441;50.856;6.076;2023-03-14T11:38:40;1.20;;;1.10;;
37593;SDS011;23441;50.856;6.076;2023-03-14T11:41:17;1.40;;;1.30;;
37593;SDS011;23441;50.856;6.076;2023-03-14T11:43:53;4.95;;;1.50;;
37593;SDS011;23441;50.856;6.076;2023-03-14T11:46:31;2.53;;;1.55;;
37593;SDS011;23441;50.856;6.076;2023-03-14T11:49:32;1.00;;;0.95;;
37593;SDS011;23441;50.856;6.076;2023-03-14T11:52:01;1.23;;;1.13;;
37593;SDS011;23441;50.856;6.076;2023-03-14T11:54:45;2.08;;;1.10;;
37593;SDS011;23441;50.856;6.076;2023-03-14T11:57:19;2.10;;;1.35;;
37593;SDS011;23441;50.856;6.076;2023-03-14T12:00:00;2.88;;;1.63;;
37593;SDS011;23441;50.856;6.076;2023-03-14T12:03:26;2.25;;;1.45;;
37593;SDS011;23441;50.856;6.076;2023-03-14T12:05:54;3.55;;;1.75;;
37593;SDS011;23441;50.856;6.076;2023-03-14T12:08:44;2.45;;;1.95;;
37593;SDS011;23441;50.856;6.076;2023-03-14T12:11:33;4.28;;;1.60;;
37593;SDS011;23441;50.856;6.076;2023-03-14T12:14:17;2.05;;;1.65;;
37593;SDS011;23441;50.856;6.076;2023-03-14T12:17:04;4.15;;;1.90;;
37593;SDS011;23441;50.856;6.076;2023-03-14T12:19:48;4.25;;;1.88;;
37593;SDS011;23441;50.856;6.076;2023-03-14T12:22:46;4.57;;;2.00;;
37593;SDS011;23441;50.856;6.076;2023-03-14T12:35:42;2.78;;;2.22;;
37593;SDS011;23441;50.856;6.076;2023-03-14T12:38:09;3.42;;;1.70;;
37593;SDS011;23441;50.856;6.076;2023-03-14T12:40:41;3.92;;;1.52;;
37593;SDS011;23441;50.856;6.076;2023-03-14T12:43:27;6.18;;;1.60;;
37593;SDS011;23441;50.856;6.076;2023-03-14T12:48:43;5.70;;;1.50;;
37593;SDS011;23441;50.856;6.076;2023-03-14T12:51:14;5.07;;;1.42;;
37593;SDS011;23441;50.856;6.076;2023-03-14T12:54:00;4.72;;;1.40;;
37593;SDS011;23441;50.856;6.076;2023-03-14T12:56:50;2.78;;;1.20;;
37593;SDS011;23441;50.856;6.076;2023-03-14T13:07:11;8.15;;;1.60;;
37593;SDS011;23441;50.856;6.076;2023-03-14T13:09:55;10.57;;;2.30;;
37593;SDS011;23441;50.856;6.076;2023-03-14T13:12:25;6.93;;;1.88;;
37593;SDS011;23441;50.856;6.076;2023-03-14T13:14:57;8.35;;;1.90;;
37593;SDS011;23441;50.856;6.076;2023-03-14T13:17:32;9.52;;;1.50;;
37593;SDS011;23441;50.856;6.076;2023-03-14T13:20:04;9.80;;;1.83;;
37593;SDS011;23441;50.856;6.076;2023-03-14T13:22:38;6.60;;;1.90;;
37593;SDS011;23441;50.856;6.076;2023-03-14T13:25:09;10.80;;;1.80;;
37593;SDS011;23441;50.856;6.076;2023-03-14T13:27:35;7.72;;;1.83;;
37593;SDS011;23441;50.856;6.076;2023-03-14T13:30:05;6.95;;;1.80;;
37593;SDS011;23441;50.856;6.076;2023-03-14T13:32:41;13.48;;;2.10;;
37593;SDS011;23441;50.856;6.076;2023-03-14T13:37:44;9.68;;;2.22;;
37593;SDS011;23441;50.856;6.076;2023-03-14T13:40:18;9.98;;;1.88;;
37593;SDS011;23441;50.856;6.076;2023-03-14T13:42:46;9.27;;;1.73;;
37593;SDS011;23441;50.856;6.076;2023-03-14T13:45:12;7.00;;;1.67;;
37593;SDS011;23441;50.856;6.076;2023-03-14T13:47:39;18.17;;;5.38;;
37593;SDS011;23441;50.856;6.076;2023-03-14T13:50:11;24.73;;;10.27;;
37593;SDS011;23441;50.856;6.076;2023-03-14T13:52:40;19.50;;;8.40;;
37593;SDS011;23441;50.856;6.076;2023-03-14T13:55:12;16.52;;;8.65;;
37593;SDS011;23441;50.856;6.076;2023-03-14T13:57:44;12.35;;;4.82;;
37593;SDS011;23441;50.856;6.076;2023-03-14T14:00:20;14.57;;;4.38;;
37593;SDS011;23441;50.856;6.076;2023-03-14T14:02:48;18.77;;;8.65;;
37593;SDS011;23441;50.856;6.076;2023-03-14T14:05:15;16.55;;;5.05;;
37593;SDS011;23441;50.856;6.076;2023-03-14T14:07:42;14.55;;;2.45;;
37593;SDS011;23441;50.856;6.076;2023-03-14T14:10:10;19.95;;;4.95;;
37593;SDS011;23441;50.856;6.076;2023-03-14T14:12:48;13.30;;;3.20;;
37593;SDS011;23441;50.856;6.076;2023-03-14T14:15:24;18.23;;;2.95;;
37593;SDS011;23441;50.856;6.076;2023-03-14T14:18:02;16.77;;;2.70;;
37593;SDS011;23441;50.856;6.076;2023-03-14T14:20:31;16.90;;;3.20;;
37593;SDS011;23441;50.856;6.076;2023-03-14T14:23:04;11.43;;;2.85;;
37593;SDS011;23441;50.856;6.076;2023-03-14T14:25:42;13.50;;;2.78;;
37593;SDS011;23441;50.856;6.076;2023-03-14T14:28:23;11.35;;;3.88;;
37593;SDS011;23441;50.856;6.076;2023-03-14T14:33:44;17.80;;;2.80;;
37593;SDS011;23441;50.856;6.076;2023-03-14T14:36:21;23.52;;;3.90;;
37593;SDS011;23441;50.856;6.076;2023-03-14T14:41:32;21.92;;;3.40;;
37593;SDS011;23441;50.856;6.076;2023-03-14T14:44:00;13.93;;;2.83;;
37593;SDS011;23441;50.856;6.076;2023-03-14T14:46:30;14.70;;;2.83;;
37593;SDS011;23441;50.856;6.076;2023-03-14T14:48:57;16.52;;;3.05;;
37593;SDS011;23441;50.856;6.076;2023-03-14T14:51:33;22.00;;;3.33;;
37593;SDS011;23441;50.856;6.076;2023-03-14T14:54:09;23.00;;;5.47;;
37593;SDS011;23441;50.856;6.076;2023-03-14T14:57:01;19.65;;;4.30;;
37593;SDS011;23441;50.856;6.076;2023-03-14T14:59:29;17.80;;;4.00;;
37593;SDS011;23441;50.856;6.076;2023-03-14T15:01:55;21.55;;;3.35;;
37593;SDS011;23441;50.856;6.076;2023-03-14T15:04:22;18.52;;;3.90;;
37593;SDS011;23441;50.856;6.076;2023-03-14T15:06:48;15.88;;;3.47;;
37593;SDS011;23441;50.856;6.076;2023-03-14T15:09:15;24.30;;;3.83;;
37593;SDS011;23441;50.856;6.076;2023-03-14T15:11:42;23.65;;;3.33;;
37593;SDS011;23441;50.856;6.076;2023-03-14T15:14:07;15.35;;;3.17;;
37593;SDS011;23441;50.856;6.076;2023-03-14T15:16:33;11.93;;;3.78;;
37593;SDS011;23441;50.856;6.076;2023-03-14T15:19:02;15.73;;;3.25;;
37593;SDS011;23441;50.856;6.076;2023-03-14T15:21:34;14.68;;;2.80;;
37593;SDS011;23441;50.856;6.076;2023-03-14T15:23:59;15.13;;;3.38;;
37593;SDS011;23441;50.856;6.076;2023-03-14T15:26:26;10.85;;;3.15;;
37593;SDS011;23441;50.856;6.076;2023-03-14T15:28:53;13.98;;;3.83;;
37593;SDS011;23441;50.856;6.076;2023-03-14T15:31:19;14.85;;;2.85;;
37593;SDS011;23441;50.856;6.076;2023-03-14T15:33:46;15.07;;;4.03;;
37593;SDS011;23441;50.856;6.076;2023-03-14T15:38:40;10.52;;;3.08;;
37593;SDS011;23441;50.856;6.076;2023-03-14T15:41:07;17.40;;;4.35;;
37593;SDS011;23441;50.856;6.076;2023-03-14T15:43:34;15.90;;;3.22;;
37593;SDS011;23441;50.856;6.076;2023-03-14T15:45:59;14.68;;;4.30;;
37593;SDS011;23441;50.856;6.076;2023-03-14T15:48:25;8.23;;;3.30;;
37593;SDS011;23441;50.856;6.076;2023-03-14T15:50:51;13.50;;;4.40;;
37593;SDS011;23441;50.856;6.076;2023-03-14T15:53:17;14.43;;;4.70;;
37593;SDS011;23441;50.856;6.076;2023-03-14T15:55:42;18.33;;;5.28;;
37593;SDS011;23441;50.856;6.076;2023-03-14T15:58:15;12.20;;;4.53;;
37593;SDS011;23441;50.856;6.076;2023-03-14T16:00:42;16.05;;;4.47;;
37593;SDS011;23441;50.856;6.076;2023-03-14T16:03:07;15.13;;;4.88;;
37593;SDS011;23441;50.856;6.076;2023-03-14T16:05:33;16.00;;;4.85;;
37593;SDS011;23441;50.856;6.076;2023-03-14T16:07:59;12.40;;;4.80;;